Time;durP1;ratioP1;P1;durP2;ratioP2;P2;SDS_P1;SDS_P2;PMS_P1;PMS_P2;Temp;Humidity;BMP_temperature;BMP_pressure;BME280_temperature;BME280_humidity;BME280_pressure;Samples;Min_cycle;Max_cycle;Signal;HPM_P1;HPM_P2
2022/06/29 00:02:27;;;;;;;10.70;7.47;;;;;;;19.01;72.78;100534.33;2053561;85;20947;-72
2022/06/29 00:05:29;;;;;;;8.83;7.97;;;;;;;19.00;73.17;100530.48;2053517;85;21026;-72
2022/06/29 00:08:30;;;;;;;9.50;6.97;;;;;;;18.97;73.22;100521.50;2050461;85;21069;-84
2022/06/29 00:11:32;;;;;;;9.85;6.95;;;;;;;18.95;73.66;100512.81;2054498;85;21102;-89
2022/06/29 00:14:41;;;;;;;7.25;6.55;;;;;;;18.92;73.60;100497.11;2051767;85;21875;-72
2022/06/29 00:17:36;;;;;;;9.75;6.92;;;;;;;18.87;73.70;100496.95;2051650;85;21050;-72
2022/06/29 00:20:38;;;;;;;7.90;6.72;;;;;;;18.87;74.04;100482.98;2049479;85;21384;-72
2022/06/29 00:23:39;;;;;;;7.35;5.90;;;;;;;18.84;74.10;100462.39;2050304;85;21053;-72
2022/06/29 00:26:40;;;;;;;9.10;6.37;;;;;;;18.81;75.03;100442.16;2057733;85;20983;-73
2022/06/29 00:29:42;;;;;;;7.33;6.62;;;;;;;18.73;75.59;100432.96;2049577;85;21009;-71
2022/06/29 00:32:46;;;;;;;10.03;5.95;;;;;;;18.67;75.06;100447.22;2049570;85;20975;-75
2022/06/29 00:35:47;;;;;;;6.92;6.25;;;;;;;18.63;76.20;100440.64;2051802;84;21545;-71
2022/06/29 00:38:51;;;;;;;7.80;5.90;;;;;;;18.56;75.61;100424.55;2055621;84;21052;-80
2022/06/29 00:41:52;;;;;;;6.80;5.80;;;;;;;18.48;75.64;100429.63;2058563;84;21038;-72
2022/06/29 00:44:53;;;;;;;6.70;5.55;;;;;;;18.43;75.68;100417.33;2055613;84;21048;-81
2022/06/29 00:47:54;;;;;;;7.05;5.53;;;;;;;18.38;75.59;100408.55;2057167;84;21336;-72
2022/06/29 00:50:59;;;;;;;6.28;5.60;;;;;;;18.40;75.64;100406.19;2054413;84;21064;-71
2022/06/29 00:54:04;;;;;;;6.45;4.80;;;;;;;18.35;75.84;100396.89;2057130;84;21085;-75
2022/06/29 00:57:10;;;;;;;7.28;5.22;;;;;;;18.35;76.34;100388.01;2054511;84;21064;-71
2022/06/29 01:00:13;;;;;;;5.28;4.78;;;;;;;18.32;77.32;100371.80;2035148;84;21573;-72
2022/06/29 01:03:15;;;;;;;5.58;5.08;;;;;;;18.30;77.12;100381.09;2054228;84;21011;-73
2022/06/29 01:06:16;;;;;;;5.47;4.58;;;;;;;18.26;76.80;100369.95;2057069;84;21054;-80
2022/06/29 01:09:18;;;;;;;6.42;5.67;;;;;;;18.23;76.98;100371.72;2057257;84;21090;-73
2022/06/29 01:12:20;;;;;;;5.85;5.35;;;;;;;18.20;76.89;100382.89;2020494;84;21024;-71
2022/06/29 01:15:22;;;;;;;5.33;4.87;;;;;;;18.18;76.89;100393.53;2057802;84;21046;-74
2022/06/29 01:18:25;;;;;;;7.37;6.28;;;;;;;18.18;76.83;100394.88;2062923;84;21505;-83
2022/06/29 01:21:29;;;;;;;6.03;5.42;;;;;;;18.17;76.76;100387.34;2056486;84;21101;-88
2022/06/29 01:24:30;;;;;;;7.22;6.37;;;;;;;18.17;76.95;100381.97;2038309;84;21054;-71
2022/06/29 01:27:32;;;;;;;7.87;7.08;;;;;;;18.15;76.77;100376.80;2054360;84;21536;-71
2022/06/29 01:30:33;;;;;;;7.97;7.17;;;;;;;18.14;76.83;100380.53;2052029;84;21037;-75
2022/06/29 01:33:35;;;;;;;11.48;9.50;;;;;;;18.16;76.84;100381.67;2051126;84;20986;-73
2022/06/29 01:36:36;;;;;;;10.70;9.60;;;;;;;18.15;76.86;100375.98;2058404;84;21061;-73
2022/06/29 01:39:39;;;;;;;11.53;9.95;;;;;;;18.13;77.00;100388.29;2060652;84;21053;-71
2022/06/29 01:42:41;;;;;;;11.28;9.20;;;;;;;18.14;76.95;100402.02;2066020;85;21036;-77
2022/06/29 01:45:42;;;;;;;9.88;8.98;;;;;;;18.15;76.86;100409.55;2058538;84;21104;-74
2022/06/29 01:48:44;;;;;;;12.75;10.08;;;;;;;18.16;76.79;100415.24;2063275;85;21005;-71
2022/06/29 01:51:45;;;;;;;14.47;9.83;;;;;;;18.18;76.91;100429.27;2065718;85;21028;-74
2022/06/29 01:54:46;;;;;;;14.18;8.85;;;;;;;18.19;76.93;100438.14;2060769;85;21525;-72
2022/06/29 01:57:48;;;;;;;10.58;9.45;;;;;;;18.21;76.88;100448.16;2059851;85;20997;-83
2022/06/29 02:00:49;;;;;;;12.90;10.28;;;;;;;18.26;76.79;100453.74;2058525;85;21584;-72
2022/06/29 02:03:51;;;;;;;10.13;9.13;;;;;;;18.27;76.75;100444.64;2036063;85;20978;-75
2022/06/29 02:06:52;;;;;;;12.10;10.23;;;;;;;18.24;76.88;100435.14;2058481;85;21065;-73
2022/06/29 02:09:53;;;;;;;10.50;9.50;;;;;;;18.22;76.88;100427.01;2060360;85;21491;-72
2022/06/29 02:12:55;;;;;;;12.85;11.35;;;;;;;18.19;77.01;100432.28;2054594;85;21064;-71
2022/06/29 02:15:56;;;;;;;12.03;10.90;;;;;;;18.15;77.05;100432.38;2068177;85;20983;-76
2022/06/29 02:18:58;;;;;;;12.33;10.65;;;;;;;18.15;77.07;100442.59;2057885;84;21622;-71
2022/06/29 02:22:02;;;;;;;12.53;11.03;;;;;;;18.17;77.04;100440.23;2063068;85;20989;-72
2022/06/29 02:25:04;;;;;;;13.13;11.88;;;;;;;18.19;77.10;100445.70;2053953;85;21029;-72
2022/06/29 02:28:05;;;;;;;14.63;11.50;;;;;;;18.21;77.03;100449.51;2029662;85;21060;-73
2022/06/29 02:34:46;;;;;;;16.57;12.25;;;;;;;18.19;77.27;100442.17;2062204;85;21631;-74
2022/06/29 02:37:47;;;;;;;16.87;13.18;;;;;;;18.15;77.20;100442.59;2072937;84;21093;-74
2022/06/29 02:40:49;;;;;;;13.75;12.33;;;;;;;18.13;77.28;100431.75;2078975;84;21002;-74
2022/06/29 02:43:50;;;;;;;17.12;13.65;;;;;;;18.11;77.50;100429.80;2083641;84;21079;-72
2022/06/29 02:46:54;;;;;;;18.70;12.80;;;;;;;18.07;77.68;100419.16;2083855;84;22294;-71
2022/06/29 02:49:55;;;;;;;17.82;13.90;;;;;;;18.03;77.93;100415.25;2086013;84;21722;-71
2022/06/29 02:52:57;;;;;;;15.85;13.43;;;;;;;18.00;78.03;100412.46;2082565;84;21049;-85
2022/06/29 02:55:58;;;;;;;15.83;13.18;;;;;;;17.98;78.15;100410.50;2086342;84;21056;-71
2022/06/29 02:59:00;;;;;;;16.62;14.95;;;;;;;17.97;78.25;100412.06;2087086;84;20985;-72
2022/06/29 03:02:03;;;;;;;16.67;14.90;;;;;;;17.94;78.59;100411.14;2082091;84;20990;-76
2022/06/29 03:05:06;;;;;;;16.80;13.85;;;;;;;17.91;78.62;100413.20;2084595;84;21531;-74
2022/06/29 03:08:07;;;;;;;18.42;14.47;;;;;;;17.91;78.85;100402.46;2085387;84;20939;-74
2022/06/29 03:11:08;;;;;;;18.67;14.85;;;;;;;17.88;78.94;100408.25;2083478;84;21052;-74
2022/06/29 03:14:10;;;;;;;16.67;14.98;;;;;;;17.87;79.14;100413.28;2080448;84;21564;-72
2022/06/29 03:17:13;;;;;;;17.73;14.95;;;;;;;17.87;78.95;100420.00;2086050;84;21060;-71
2022/06/29 03:20:14;;;;;;;16.37;14.73;;;;;;;17.90;79.04;100412.05;2082528;84;21029;-73
2022/06/29 03:23:16;;;;;;;18.50;14.43;;;;;;;17.92;79.05;100406.78;2080474;83;21591;-90
2022/06/29 03:26:18;;;;;;;17.12;15.43;;;;;;;17.95;79.53;100410.09;2088466;84;21037;-75
2022/06/29 03:29:19;;;;;;;17.90;13.85;;;;;;;17.95;79.29;100404.73;2086334;84;21100;-71
2022/06/29 03:32:22;;;;;;;16.90;15.00;;;;;;;17.94;79.28;100401.22;2082456;84;20985;-73
2022/06/29 03:35:24;;;;;;;16.12;14.58;;;;;;;17.92;79.37;100406.78;2084223;84;21646;-72
2022/06/29 03:38:27;;;;;;;16.50;14.80;;;;;;;17.92;79.53;100402.76;2079687;84;21033;-72
2022/06/29 03:41:28;;;;;;;18.15;14.53;;;;;;;17.92;79.70;100408.65;2068495;84;21069;-71
2022/06/29 03:44:30;;;;;;;15.95;14.35;;;;;;;17.90;79.68;100401.31;2081018;84;21045;-74
2022/06/29 03:47:32;;;;;;;17.40;15.48;;;;;;;17.88;79.74;100410.11;2081439;84;21084;-71
2022/06/29 03:50:33;;;;;;;15.43;13.83;;;;;;;17.90;79.77;100414.73;2080194;84;21065;-78
2022/06/29 03:53:35;;;;;;;17.80;15.78;;;;;;;17.94;79.88;100412.48;2080670;84;20997;-72
2022/06/29 03:56:36;;;;;;;15.55;13.18;;;;;;;17.94;79.83;100417.85;2082525;83;21046;-73
2022/06/29 03:59:38;;;;;;;15.70;14.03;;;;;;;17.99;79.90;100412.66;2081397;84;20994;-71
2022/06/29 04:02:39;;;;;;;17.85;14.45;;;;;;;17.98;80.12;100409.16;2081355;84;21072;-72
2022/06/29 04:05:41;;;;;;;20.05;14.58;;;;;;;17.97;80.04;100405.35;2082927;84;21009;-71
2022/06/29 04:08:42;;;;;;;15.50;13.88;;;;;;;18.01;80.09;100407.91;2081620;84;21056;-72
2022/06/29 04:11:49;;;;;;;17.85;13.88;;;;;;;18.06;80.24;100406.25;2083081;84;21025;-71
2022/06/29 04:14:52;;;;;;;18.70;14.40;;;;;;;18.13;80.28;100407.58;2089294;84;23033;-74
2022/06/29 04:17:54;;;;;;;15.98;14.05;;;;;;;18.23;80.38;100404.48;2081937;84;21056;-71
2022/06/29 04:21:07;;;;;;;18.85;14.10;;;;;;;18.31;80.50;100405.59;2082930;84;21513;-72
2022/06/29 04:24:09;;;;;;;16.00;13.90;;;;;;;18.35;80.57;100406.29;2082569;84;20990;-71
2022/06/29 04:27:11;;;;;;;16.23;14.13;;;;;;;18.35;80.45;100396.89;2087757;84;20974;-73
2022/06/29 04:30:13;;;;;;;15.70;13.93;;;;;;;18.43;80.51;100403.90;2084604;84;21044;-75
2022/06/29 04:33:14;;;;;;;14.58;13.08;;;;;;;18.50;80.18;100401.19;2081553;84;21480;-71
2022/06/29 04:36:16;;;;;;;17.02;13.65;;;;;;;18.58;80.16;100403.64;2082125;84;21512;-74
2022/06/29 04:39:18;;;;;;;16.57;14.73;;;;;;;18.63;79.92;100394.42;2058514;84;21640;-71
2022/06/29 04:42:19;;;;;;;18.92;14.38;;;;;;;18.67;79.74;100390.29;2058846;84;21121;-73
2022/06/29 04:48:41;;;;;;;16.97;14.53;;;;;;;18.79;79.47;100392.64;2053958;84;21110;-71
2022/06/29 04:51:43;;;;;;;14.90;13.18;;;;;;;18.80;79.37;100400.99;2052796;84;21037;-72
2022/06/29 04:54:45;;;;;;;16.55;13.20;;;;;;;18.87;79.40;100397.47;2060578;84;21497;-71
2022/06/29 04:57:46;;;;;;;15.58;14.05;;;;;;;18.89;79.32;100396.72;2053845;84;22137;-72
2022/06/29 05:00:47;;;;;;;17.20;13.58;;;;;;;18.92;79.04;100397.13;2057563;84;21015;-75
2022/06/29 05:03:50;;;;;;;15.40;13.68;;;;;;;18.96;79.05;100400.21;2059020;84;21541;-71
2022/06/29 05:06:51;;;;;;;14.95;12.53;;;;;;;19.02;78.93;100403.37;2057218;84;21026;-72
2022/06/29 05:09:52;;;;;;;16.32;13.55;;;;;;;19.03;78.85;100409.05;2057210;84;21551;-91
2022/06/29 05:12:56;;;;;;;15.88;14.23;;;;;;;19.07;78.72;100403.56;2051968;84;21077;-71
2022/06/29 05:15:57;;;;;;;12.95;11.63;;;;;;;19.13;78.57;100402.70;2053353;84;21560;-72
2022/06/29 05:18:58;;;;;;;14.53;11.65;;;;;;;19.15;78.71;100400.63;2052894;84;20989;-73
2022/06/29 05:22:00;;;;;;;14.20;12.80;;;;;;;19.17;78.45;100394.48;2061214;84;21113;-80
2022/06/29 05:25:01;;;;;;;15.10;13.53;;;;;;;19.23;78.62;100397.68;2053543;84;21048;-72
2022/06/29 05:28:03;;;;;;;16.07;12.40;;;;;;;19.23;78.14;100404.90;2055505;84;21022;-71
2022/06/29 05:31:05;;;;;;;15.45;14.00;;;;;;;19.25;78.19;100398.27;2062971;84;21026;-72
2022/06/29 05:34:06;;;;;;;16.15;13.35;;;;;;;19.30;78.23;100386.86;2064353;84;21033;-72
2022/06/29 05:37:08;;;;;;;17.15;13.18;;;;;;;19.39;78.30;100392.80;2058967;84;21569;-74
2022/06/29 05:40:09;;;;;;;16.70;12.80;;;;;;;19.52;78.31;100391.37;2051587;85;21106;-71
2022/06/29 05:43:11;;;;;;;19.92;15.50;;;;;;;19.63;77.95;100396.56;2053131;85;21010;-72
2022/06/29 05:46:12;;;;;;;16.23;14.33;;;;;;;19.70;77.82;100393.31;2055305;85;21076;-84
2022/06/29 05:49:16;;;;;;;16.02;14.07;;;;;;;19.78;77.88;100397.61;2015399;85;21129;-73
2022/06/29 05:52:19;;;;;;;15.40;13.78;;;;;;;19.79;77.26;100385.25;2053632;85;20995;-73
2022/06/29 05:55:21;;;;;;;19.42;13.65;;;;;;;19.89;77.29;100387.46;2033294;85;21654;-76
2022/06/29 05:58:23;;;;;;;18.00;12.78;;;;;;;19.98;78.92;100378.58;2054097;85;21022;-77
2022/06/29 06:01:24;;;;;;;17.90;15.43;;;;;;;20.08;76.99;100383.75;2053401;85;21571;-73
2022/06/29 06:04:26;;;;;;;15.53;13.88;;;;;;;20.18;76.72;100387.80;2052975;85;21022;-73
2022/06/29 06:07:28;;;;;;;15.30;13.70;;;;;;;20.34;76.65;100379.95;2029588;85;21070;-88
2022/06/29 06:10:29;;;;;;;15.98;14.40;;;;;;;20.65;76.33;100370.61;2053681;85;21040;-85
2022/06/29 06:13:31;;;;;;;15.58;14.07;;;;;;;21.08;76.01;100370.42;2054056;85;21076;-72
2022/06/29 06:16:35;;;;;;;16.48;14.78;;;;;;;21.30;74.60;100369.37;2055569;85;21450;-72
2022/06/29 06:19:35;;;;;;;16.17;14.03;;;;;;;21.29;73.47;100369.09;2051415;85;21034;-71
2022/06/29 06:22:36;;;;;;;18.12;15.28;;;;;;;21.25;73.57;100369.23;2051902;85;21010;-72
2022/06/29 06:25:38;;;;;;;15.38;13.88;;;;;;;21.43;73.86;100362.45;2052780;85;21081;-81
2022/06/29 06:28:40;;;;;;;13.53;12.18;;;;;;;22.07;74.10;100364.45;2049275;85;20970;-72
2022/06/29 06:31:41;;;;;;;16.00;14.30;;;;;;;22.78;73.39;100368.68;2053723;85;21563;-72
2022/06/29 06:34:42;;;;;;;14.50;12.78;;;;;;;23.33;71.68;100360.48;2053847;85;21068;-72
2022/06/29 06:37:44;;;;;;;13.40;12.00;;;;;;;23.37;70.52;100354.03;2054167;84;21010;-71
2022/06/29 06:44:05;;;;;;;;;;;;;;;23.38;69.03;100359.75;2075294;84;21584;-74
2022/06/29 06:47:07;;;;;;;18.02;13.65;;;;;;;23.17;69.27;100343.69;2030298;86;20472;-84
2022/06/29 06:50:09;;;;;;;16.32;13.90;;;;;;;23.05;69.26;100336.98;2003380;87;21487;-77
2022/06/29 06:53:10;;;;;;;19.02;15.13;;;;;;;22.76;68.54;100331.58;2007485;87;21042;-71
2022/06/29 06:56:13;;;;;;;15.63;13.95;;;;;;;22.46;69.18;100333.69;1977671;87;21047;-72
2022/06/29 06:59:14;;;;;;;14.53;12.68;;;;;;;22.36;69.74;100336.48;1997741;87;21494;-72
2022/06/29 07:02:15;;;;;;;14.23;12.80;;;;;;;22.40;69.74;100340.05;2002493;86;21075;-71
2022/06/29 07:05:17;;;;;;;17.17;13.38;;;;;;;22.26;69.66;100334.91;2000996;87;21019;-71
2022/06/29 07:08:21;;;;;;;16.27;14.63;;;;;;;22.31;69.74;100334.20;2000146;87;20940;-72
2022/06/29 07:11:22;;;;;;;15.50;13.85;;;;;;;22.68;69.90;100329.80;2004418;87;21631;-72
2022/06/29 07:14:23;;;;;;;16.10;14.00;;;;;;;22.79;69.53;100328.92;2073726;84;21034;-74
2022/06/29 07:17:27;;;;;;;16.40;13.35;;;;;;;22.72;69.09;100333.14;2069764;84;21081;-72
2022/06/29 07:20:30;;;;;;;14.98;13.48;;;;;;;22.59;69.17;100334.23;2069221;84;21053;-74
2022/06/29 07:23:32;;;;;;;15.10;13.60;;;;;;;22.57;69.33;100337.70;2071523;84;21011;-72
2022/06/29 07:26:34;;;;;;;13.48;12.23;;;;;;;22.57;69.06;100328.77;2070137;84;21035;-72
2022/06/29 07:29:35;;;;;;;15.38;12.98;;;;;;;22.66;69.44;100325.15;2072114;84;21039;-72
2022/06/29 07:32:37;;;;;;;15.60;14.00;;;;;;;22.77;68.82;100322.39;2071711;84;21054;-77
2022/06/29 07:35:38;;;;;;;14.90;13.40;;;;;;;22.66;68.59;100339.48;2076567;83;20991;-75
2022/06/29 07:38:39;;;;;;;14.43;12.93;;;;;;;22.64;68.63;100348.39;2061914;84;21039;-72
2022/06/29 07:41:41;;;;;;;16.60;12.58;;;;;;;22.97;69.11;100345.50;2053864;85;21421;-82
2022/06/29 07:44:42;;;;;;;14.47;13.10;;;;;;;23.69;68.92;100327.20;2049773;85;20981;-72
2022/06/29 07:47:44;;;;;;;13.85;12.65;;;;;;;24.41;67.71;100323.56;2051988;85;21579;-72
2022/06/29 07:50:46;;;;;;;12.47;11.18;;;;;;;24.78;66.88;100326.47;2028585;85;21025;-71
2022/06/29 07:53:47;;;;;;;9.60;8.70;;;;;;;25.34;65.98;100320.77;2051400;85;21104;-75
2022/06/29 07:56:48;;;;;;;10.93;9.93;;;;;;;25.82;64.24;100313.48;2052741;85;21060;-89
2022/06/29 07:59:50;;;;;;;9.05;8.23;;;;;;;25.94;63.16;100327.70;2054106;85;21033;-76
2022/06/29 08:02:51;;;;;;;8.55;7.70;;;;;;;26.14;62.17;100331.61;2052690;85;21018;-75
2022/06/29 08:05:53;;;;;;;9.03;8.13;;;;;;;26.26;60.65;100338.18;2049645;85;21076;-73
2022/06/29 08:08:59;;;;;;;8.43;7.72;;;;;;;26.33;60.99;100351.83;2050471;85;21023;-82
2022/06/29 08:12:02;;;;;;;8.33;7.00;;;;;;;26.08;59.85;100365.30;2049167;85;21541;-71
2022/06/29 08:15:05;;;;;;;7.37;6.72;;;;;;;25.94;59.89;100367.12;2055033;85;21070;-86
2022/06/29 08:18:06;;;;;;;9.38;8.48;;;;;;;26.12;60.38;100351.44;2056535;85;21478;-77
2022/06/29 08:21:08;;;;;;;9.33;8.10;;;;;;;26.81;59.72;100359.91;2054155;85;21066;-72
2022/06/29 08:24:11;;;;;;;9.10;8.35;;;;;;;27.35;58.58;100364.89;2054161;85;21493;-72
2022/06/29 08:27:13;;;;;;;8.40;7.65;;;;;;;27.23;57.69;100363.80;2053054;85;21084;-72
2022/06/29 08:30:14;;;;;;;9.68;8.75;;;;;;;27.19;57.26;100369.51;2051322;85;20991;-74
2022/06/29 08:33:16;;;;;;;9.13;8.23;;;;;;;26.89;56.27;100359.37;2052245;85;21578;-71
2022/06/29 08:36:17;;;;;;;9.60;8.58;;;;;;;26.50;56.46;100344.84;2052462;85;21044;-73
2022/06/29 08:39:19;;;;;;;11.50;9.13;;;;;;;25.96;56.53;100348.35;2040019;85;20987;-85
2022/06/29 08:42:24;;;;;;;9.70;8.73;;;;;;;25.61;57.03;100346.48;2023813;85;21117;-72
2022/06/29 08:45:27;;;;;;;9.83;8.15;;;;;;;25.22;57.41;100340.47;2017466;85;21054;-72
2022/06/29 08:48:30;;;;;;;9.23;8.33;;;;;;;24.92;58.11;100326.88;2022887;85;21121;-72
2022/06/29 08:51:34;;;;;;;11.40;10.20;;;;;;;24.57;58.57;100325.41;2013213;87;21001;-77
2022/06/29 08:54:46;;;;;;;10.23;9.23;;;;;;;24.26;58.98;100320.68;2018264;87;21559;-72
2022/06/29 08:57:47;;;;;;;11.63;9.20;;;;;;;23.95;59.59;100301.31;2019338;85;21052;-76
2022/06/29 09:00:49;;;;;;;10.60;9.33;;;;;;;23.59;60.29;100280.45;2020527;85;21003;-71
2022/06/29 09:03:50;;;;;;;11.00;9.40;;;;;;;23.25;60.90;100258.83;2024517;85;21430;-74
2022/06/29 09:06:57;;;;;;;11.45;10.18;;;;;;;22.94;61.57;100233.14;2015599;85;22042;-73
2022/06/29 09:10:11;;;;;;;11.57;10.55;;;;;;;22.67;62.39;100230.80;2017044;85;21092;-73
2022/06/29 09:13:21;;;;;;;12.33;11.03;;;;;;;22.46;63.03;100249.34;2017596;85;21031;-74
2022/06/29 09:16:23;;;;;;;16.32;12.43;;;;;;;22.32;63.47;100251.51;2026042;86;21001;-72
2022/06/29 09:19:30;;;;;;;13.95;12.65;;;;;;;22.20;64.34;100253.98;2027111;86;21137;-79
2022/06/29 09:22:31;;;;;;;16.27;13.22;;;;;;;22.10;65.14;100247.29;2035653;85;21544;-93
2022/06/29 09:25:39;;;;;;;15.38;13.88;;;;;;;22.01;65.90;100235.19;1979712;86;21017;-73
2022/06/29 09:28:38;;;;;;;15.98;14.38;;;;;;;22.02;66.54;100263.87;2027321;86;21100;-72
2022/06/29 09:31:43;;;;;;;17.50;15.83;;;;;;;22.35;67.73;100284.00;2034642;86;21042;-72
2022/06/29 09:34:50;;;;;;;16.73;15.03;;;;;;;22.85;67.82;100293.31;2027244;86;21470;-72
2022/06/29 09:37:51;;;;;;;16.70;14.87;;;;;;;23.29;68.14;100320.09;2020033;85;21037;-72
2022/06/29 09:41:14;;;;;;;16.65;14.38;;;;;;;23.65;67.89;100323.33;2052248;84;21001;-78
2022/06/29 09:44:16;;;;;;;19.48;14.95;;;;;;;23.84;67.33;100322.02;2033161;84;21026;-72
2022/06/29 09:47:20;;;;;;;15.95;14.47;;;;;;;23.98;67.20;100333.33;2039631;84;21102;-73
2022/06/29 09:50:22;;;;;;;17.05;15.25;;;;;;;24.03;66.83;100337.47;2055910;84;21070;-76
2022/06/29 09:53:38;;;;;;;16.48;14.75;;;;;;;24.25;67.05;100323.12;2053106;84;21486;-72
2022/06/29 09:56:49;;;;;;;15.75;14.15;;;;;;;24.59;67.22;100318.39;2055743;84;21088;-74
2022/06/29 10:03:16;;;;;;;17.00;12.40;;;;;;;25.88;64.60;100286.62;2057617;84;21113;-83
2022/06/29 10:06:18;;;;;;;13.20;12.00;;;;;;;26.36;63.86;100275.13;2054477;84;21462;-73
2022/06/29 10:09:21;;;;;;;13.25;11.88;;;;;;;26.50;62.25;100270.03;2034386;84;21572;-73
2022/06/29 10:16:05;;;;;;;13.20;11.90;;;;;;;26.19;61.02;100250.61;2051824;84;21116;-90
2022/06/29 10:19:23;;;;;;;13.43;11.18;;;;;;;25.65;60.57;100247.08;2054064;84;21100;-71
2022/06/29 10:22:29;;;;;;;12.30;11.00;;;;;;;25.32;61.38;100254.20;2059369;84;20999;-73
2022/06/29 10:25:30;;;;;;;12.30;11.08;;;;;;;25.26;61.73;100262.86;2053998;84;21031;-72
2022/06/29 10:28:32;;;;;;;13.75;11.43;;;;;;;25.51;61.85;100262.22;2055518;84;21089;-72
2022/06/29 10:31:56;;;;;;;12.33;11.12;;;;;;;25.79;61.50;100256.09;2052927;84;21027;-81
2022/06/29 10:35:07;;;;;;;12.07;10.88;;;;;;;26.24;61.12;100256.84;2047668;84;21049;-80
2022/06/29 10:38:09;;;;;;;10.72;9.73;;;;;;;26.56;60.21;100259.42;2055854;84;21054;-74
2022/06/29 10:43:07;;;;;;;11.97;9.58;;;;;;;26.81;59.79;100253.75;2062147;84;21085;-73
2022/06/29 10:44:15;;;;;;;10.58;9.68;;;;;;;27.06;58.08;100248.86;2057345;84;21246;-73
2022/06/29 10:47:22;;;;;;;12.05;10.72;;;;;;;27.17;57.62;100239.62;2062523;84;21055;-72
2022/06/29 10:50:29;;;;;;;9.98;9.03;;;;;;;26.89;56.70;100236.03;2064939;84;21002;-72
2022/06/29 10:53:31;;;;;;;10.85;9.55;;;;;;;26.76;57.12;100234.69;2064227;84;21556;-85
2022/06/29 10:56:34;;;;;;;10.55;9.40;;;;;;;26.42;57.68;100223.47;2057515;84;21064;-73
2022/06/29 10:59:38;;;;;;;10.53;9.55;;;;;;;26.42;57.81;100224.27;2065913;83;21002;-72
2022/06/29 11:02:44;;;;;;;11.90;9.23;;;;;;;26.74;58.19;100228.14;2058633;84;21045;-72
2022/06/29 11:12:32;;;;;;;10.32;9.40;;;;;;;27.77;57.46;100213.84;2063145;84;21031;-75
2022/06/29 11:15:49;;;;;;;9.93;9.03;;;;;;;28.11;56.59;100207.17;2037253;84;21045;-72
2022/06/29 11:18:56;;;;;;;11.57;8.95;;;;;;;28.16;56.17;100194.06;2064642;84;21049;-74
2022/06/29 11:22:15;;;;;;;10.15;7.95;;;;;;;28.22;56.19;100194.84;2070519;84;21481;-73
2022/06/29 11:25:17;;;;;;;9.15;8.10;;;;;;;28.24;55.89;100188.54;2065581;84;21132;-72
2022/06/29 11:28:23;;;;;;;11.20;8.25;;;;;;;28.37;55.75;100183.27;2066968;84;21010;-78
2022/06/29 11:31:26;;;;;;;10.82;7.97;;;;;;;28.29;54.95;100184.42;2062163;84;21016;-73
2022/06/29 11:34:27;;;;;;;8.15;7.45;;;;;;;28.35;54.77;100194.20;2062698;84;21848;-90
2022/06/29 11:37:29;;;;;;;9.10;7.62;;;;;;;28.46;55.23;100184.88;2061858;84;21042;-75
2022/06/29 11:40:35;;;;;;;12.33;8.40;;;;;;;28.88;55.30;100183.44;2073950;84;21112;-76
2022/06/29 11:43:37;;;;;;;41.55;8.95;;;;;;;29.26;54.39;100183.11;2080497;84;21102;-74
2022/06/29 11:46:38;;;;;;;9.65;7.42;;;;;;;29.71;54.17;100180.16;2078885;84;21083;-72
2022/06/29 11:49:41;;;;;;;8.60;7.62;;;;;;;29.86;53.08;100149.87;2080589;84;21050;-74
2022/06/29 11:52:47;;;;;;;8.28;7.25;;;;;;;30.20;52.73;100181.67;2082818;84;21089;-76
2022/06/29 11:55:48;;;;;;;9.05;8.15;;;;;;;30.16;51.60;100180.65;2082699;84;21085;-82
2022/06/29 11:58:52;;;;;;;7.95;7.20;;;;;;;29.73;50.21;100177.13;2077113;84;21104;-73
2022/06/29 12:01:54;;;;;;;8.93;7.10;;;;;;;29.64;51.28;100176.95;2080442;84;21084;-87
2022/06/29 12:05:00;;;;;;;7.55;6.85;;;;;;;29.50;50.05;100175.45;2082875;83;21068;-73
2022/06/29 12:08:01;;;;;;;7.58;6.83;;;;;;;29.53;50.75;100169.95;2077175;84;21005;-76
2022/06/29 12:11:03;;;;;;;6.95;6.30;;;;;;;29.60;50.33;100169.06;2080137;84;21079;-80
2022/06/29 12:14:04;;;;;;;9.50;6.83;;;;;;;29.66;50.83;100170.66;2076326;84;21603;-73
2022/06/29 12:17:07;;;;;;;7.53;6.75;;;;;;;30.06;50.95;100169.28;2084228;83;21068;-79
2022/06/29 12:20:10;;;;;;;6.62;6.08;;;;;;;30.43;49.82;100170.96;2078531;84;21021;-73
2022/06/29 12:23:12;;;;;;;8.00;6.95;;;;;;;30.43;48.01;100176.44;2079942;84;20999;-76
2022/06/29 12:26:14;;;;;;;6.10;5.60;;;;;;;30.24;49.04;100170.97;2078457;84;21085;-72
2022/06/29 12:29:18;;;;;;;8.10;6.40;;;;;;;30.26;48.79;100171.49;2083538;83;21058;-87
2022/06/29 12:32:22;;;;;;;7.17;6.53;;;;;;;30.28;49.05;100170.66;2079148;83;21033;-73
2022/06/29 12:35:23;;;;;;;9.35;7.17;;;;;;;30.35;48.28;100167.80;2081159;84;21536;-73
2022/06/29 12:38:25;;;;;;;6.62;6.00;;;;;;;30.24;48.13;100169.07;2082344;84;21074;-73
2022/06/29 12:41:26;;;;;;;6.97;6.28;;;;;;;30.26;48.37;100164.09;2061067;84;21567;-74
2022/06/29 12:44:28;;;;;;;7.37;6.05;;;;;;;30.22;47.30;100172.65;2056832;84;21472;-86
2022/06/29 12:47:32;;;;;;;6.03;5.53;;;;;;;30.03;48.09;100173.98;2057717;84;21351;-73
2022/06/29 12:50:34;;;;;;;6.87;5.20;;;;;;;29.99;47.12;100174.33;2058028;84;21498;-73
2022/06/29 12:53:36;;;;;;;6.53;5.78;;;;;;;29.63;47.48;100170.69;2058388;84;20974;-73
2022/06/29 12:56:39;;;;;;;7.15;6.12;;;;;;;29.53;48.02;100175.42;2053612;84;21055;-76
2022/06/29 12:59:41;;;;;;;6.45;5.85;;;;;;;29.45;49.27;100169.51;2056811;84;21049;-73
2022/06/29 13:02:44;;;;;;;7.53;5.58;;;;;;;29.34;48.92;100169.89;2055640;84;21048;-74
2022/06/29 13:05:46;;;;;;;7.58;6.50;;;;;;;29.24;48.92;100173.56;2047880;84;21053;-74
2022/06/29 13:08:48;;;;;;;9.10;6.00;;;;;;;28.96;50.50;100161.53;2058082;83;21454;-73
2022/06/29 13:11:51;;;;;;;6.58;5.97;;;;;;;28.96;50.50;100161.53;2051868;84;21017;-72
2022/06/29 13:14:54;;;;;;;6.65;5.90;;;;;;;28.85;51.40;100166.83;2059265;83;21041;-72
2022/06/29 13:17:56;;;;;;;8.00;6.80;;;;;;;28.85;51.40;100166.83;2053396;84;21061;-73
2022/06/29 13:20:57;;;;;;;8.75;6.75;;;;;;;28.73;52.10;100166.66;2053886;84;21010;-77
2022/06/29 13:23:59;;;;;;;8.65;6.60;;;;;;;28.59;52.09;100172.50;2054705;84;21096;-82
2022/06/29 13:27:02;;;;;;;7.00;6.30;;;;;;;28.41;52.74;100165.80;2056766;84;21560;-76
2022/06/29 13:30:05;;;;;;;11.33;7.33;;;;;;;28.22;52.55;100171.11;2038365;84;21101;-73
2022/06/29 13:33:08;;;;;;;8.35;6.25;;;;;;;28.07;52.33;100170.66;2057524;84;21049;-74
2022/06/29 13:36:09;;;;;;;8.13;7.17;;;;;;;28.01;52.56;100181.30;2054721;84;20998;-73
2022/06/29 13:39:11;;;;;;;7.53;6.72;;;;;;;27.94;53.16;100175.36;2056467;84;21077;-75
2022/06/29 13:42:15;;;;;;;8.15;7.20;;;;;;;27.86;53.23;100172.67;2053421;85;21483;-72
2022/06/29 13:45:16;;;;;;;8.63;7.67;;;;;;;27.85;53.74;100172.97;2052274;85;21117;-74
2022/06/29 13:48:18;;;;;;;9.73;7.22;;;;;;;27.77;53.43;100170.79;2054450;85;21063;-73
2022/06/29 13:51:19;;;;;;;8.08;7.30;;;;;;;27.78;53.54;100171.05;2054221;85;21071;-72
2022/06/29 13:54:21;;;;;;;9.45;7.75;;;;;;;27.73;53.04;100166.42;2051725;85;21365;-74
2022/06/29 13:57:24;;;;;;;8.70;7.70;;;;;;;27.65;53.20;100174.65;2044743;85;21025;-75
2022/06/29 14:00:27;;;;;;;7.85;6.45;;;;;;;27.64;53.51;100167.55;2054844;85;21081;-73
2022/06/29 14:03:29;;;;;;;9.00;7.55;;;;;;;27.63;53.45;100168.66;2055141;85;21056;-74
2022/06/29 14:06:30;;;;;;;7.90;7.15;;;;;;;27.66;53.52;100153.11;2054635;85;21511;-74
2022/06/29 14:09:31;;;;;;;8.10;7.25;;;;;;;27.63;53.60;100138.67;2051841;85;21587;-73
2022/06/29 14:12:36;;;;;;;7.87;7.08;;;;;;;27.59;53.57;100128.05;2053014;85;20993;-73
2022/06/29 14:15:43;;;;;;;8.35;7.15;;;;;;;27.63;53.52;100132.41;2052144;85;21054;-73
2022/06/29 14:18:43;;;;;;;7.50;6.83;;;;;;;27.71;53.99;100134.01;2053749;85;21030;-72
2022/06/29 14:21:45;;;;;;;7.55;6.83;;;;;;;27.68;53.64;100133.20;2052387;85;21049;-74
2022/06/29 14:24:47;;;;;;;12.07;7.47;;;;;;;27.48;53.39;100118.29;2052846;85;21494;-73